Terminal Aerodrome Forecast
Issued by NWS

Home | Current Version | Previous Version | Graphics & Text | Print | Product List | Glossary On
Versions: 1 2 3 4 5 6 7 8 9 10 11 12 13 14 15 16 17 18
840
FTUS43 KICT 092331
TAFSLN
TAF
KSLN 092331Z 1000/1024 36010KT P6SM SCT070
     FM100200 VRB05KT P6SM OVC060
     FM101100 21007KT P6SM SCT100
     FM101800 27015KT P6SM SKC=

USA.gov is the U.S. government's official web portal to all federal, state and local government web resources and services.